sensor_id;sensor_type;location;lat;lon;timestamp;pressure;altitude;pressure_sealevel;temperature;humidity
55317;BME280;41178;48.956;8.130;2022-08-03T00:00:33;99707.84;;;27.85;41.54
55317;BME280;41178;48.956;8.130;2022-08-03T00:02:34;99713.31;;;27.54;42.16
55317;BME280;41178;48.956;8.130;2022-08-03T00:04:36;99698.03;;;27.27;42.67
55317;BME280;41178;48.956;8.130;2022-08-03T00:06:39;99691.47;;;27.74;41.84
55317;BME280;41178;48.956;8.130;2022-08-03T00:08:40;99701.56;;;27.38;42.47
55317;BME280;41178;48.956;8.130;2022-08-03T00:10:42;99688.75;;;27.69;41.57
55317;BME280;41178;48.956;8.130;2022-08-03T00:12:44;99695.81;;;27.55;41.72
55317;BME280;41178;48.956;8.130;2022-08-03T00:14:46;99690.69;;;27.69;41.63
55317;BME280;41178;48.956;8.130;2022-08-03T00:16:48;99694.47;;;27.88;41.35
55317;BME280;41178;48.956;8.130;2022-08-03T00:18:49;99703.75;;;27.41;41.92
55317;BME280;41178;48.956;8.130;2022-08-03T00:20:52;99695.88;;;27.70;41.62
55317;BME280;41178;48.956;8.130;2022-08-03T00:22:53;99696.09;;;27.38;42.32
55317;BME280;41178;48.956;8.130;2022-08-03T00:24:55;99700.44;;;27.03;43.18
55317;BME280;41178;48.956;8.130;2022-08-03T00:26:57;99681.84;;;27.00;42.73
55317;BME280;41178;48.956;8.130;2022-08-03T00:28:59;99691.09;;;26.83;43.21
55317;BME280;41178;48.956;8.130;2022-08-03T00:31:01;99680.44;;;26.71;43.49
55317;BME280;41178;48.956;8.130;2022-08-03T00:33:03;99668.81;;;27.12;42.95
55317;BME280;41178;48.956;8.130;2022-08-03T00:35:08;99668.75;;;26.97;42.89
55317;BME280;41178;48.956;8.130;2022-08-03T00:37:28;99670.00;;;26.53;43.70
55317;BME280;41178;48.956;8.130;2022-08-03T00:39:42;99664.69;;;27.04;43.29
55317;BME280;41178;48.956;8.130;2022-08-03T00:41:46;99660.56;;;26.97;42.99
55317;BME280;41178;48.956;8.130;2022-08-03T00:43:47;99663.88;;;27.30;42.55
55317;BME280;41178;48.956;8.130;2022-08-03T00:45:49;99684.34;;;26.33;44.24
55317;BME280;41178;48.956;8.130;2022-08-03T00:47:51;99665.47;;;26.79;43.47
55317;BME280;41178;48.956;8.130;2022-08-03T00:49:53;99677.41;;;25.67;45.83
55317;BME280;41178;48.956;8.130;2022-08-03T00:51:55;99655.22;;;26.39;44.61
55317;BME280;41178;48.956;8.130;2022-08-03T00:53:56;99662.13;;;26.62;44.28
55317;BME280;41178;48.956;8.130;2022-08-03T00:55:58;99653.03;;;26.36;44.73
55317;BME280;41178;48.956;8.130;2022-08-03T00:58:01;99667.53;;;26.51;44.05
55317;BME280;41178;48.956;8.130;2022-08-03T01:00:08;99657.88;;;27.12;43.61
55317;BME280;41178;48.956;8.130;2022-08-03T01:02:10;99656.94;;;26.60;44.54
55317;BME280;41178;48.956;8.130;2022-08-03T01:04:12;99656.81;;;27.13;43.16
55317;BME280;41178;48.956;8.130;2022-08-03T01:08:45;99641.72;;;26.90;43.86
55317;BME280;41178;48.956;8.130;2022-08-03T01:13:31;99660.06;;;27.51;42.78
55317;BME280;41178;48.956;8.130;2022-08-03T01:18:14;99655.91;;;26.97;43.57
55317;BME280;41178;48.956;8.130;2022-08-03T01:20:19;99655.91;;;26.87;43.92
55317;BME280;41178;48.956;8.130;2022-08-03T01:22:44;99645.34;;;27.21;43.49
55317;BME280;41178;48.956;8.130;2022-08-03T01:30:08;99652.91;;;26.88;43.28
55317;BME280;41178;48.956;8.130;2022-08-03T01:32:14;99649.69;;;27.07;43.39
55317;BME280;41178;48.956;8.130;2022-08-03T01:34:50;99649.81;;;26.49;43.90
55317;BME280;41178;48.956;8.130;2022-08-03T01:36:55;99643.88;;;26.62;43.96
55317;BME280;41178;48.956;8.130;2022-08-03T01:39:00;99635.94;;;26.56;44.04
55317;BME280;41178;48.956;8.130;2022-08-03T01:41:16;99644.59;;;26.37;44.35
55317;BME280;41178;48.956;8.130;2022-08-03T01:43:22;99643.13;;;26.19;44.81
55317;BME280;41178;48.956;8.130;2022-08-03T01:45:45;99646.84;;;25.97;44.98
55317;BME280;41178;48.956;8.130;2022-08-03T01:47:48;99641.78;;;25.74;45.27
55317;BME280;41178;48.956;8.130;2022-08-03T01:49:51;99634.63;;;26.05;44.52
55317;BME280;41178;48.956;8.130;2022-08-03T01:51:55;99628.69;;;26.13;44.52
55317;BME280;41178;48.956;8.130;2022-08-03T01:54:07;99638.75;;;25.70;45.27
55317;BME280;41178;48.956;8.130;2022-08-03T01:56:11;99618.28;;;25.30;45.95
55317;BME280;41178;48.956;8.130;2022-08-03T01:58:15;99622.38;;;25.65;45.44
55317;BME280;41178;48.956;8.130;2022-08-03T02:00:19;99628.41;;;25.72;45.66
55317;BME280;41178;48.956;8.130;2022-08-03T02:02:21;99618.66;;;25.76;45.24
55317;BME280;41178;48.956;8.130;2022-08-03T02:04:36;99625.91;;;26.03;44.90
55317;BME280;41178;48.956;8.130;2022-08-03T02:06:40;99627.25;;;25.58;45.47
55317;BME280;41178;48.956;8.130;2022-08-03T02:09:05;99615.59;;;26.15;44.94
55317;BME280;41178;48.956;8.130;2022-08-03T02:11:07;99628.91;;;25.64;45.68
55317;BME280;41178;48.956;8.130;2022-08-03T02:13:09;99619.59;;;25.97;44.94
55317;BME280;41178;48.956;8.130;2022-08-03T02:15:14;99621.56;;;26.07;44.87
55317;BME280;41178;48.956;8.130;2022-08-03T02:17:17;99627.28;;;26.11;44.58
55317;BME280;41178;48.956;8.130;2022-08-03T02:19:41;99636.59;;;25.72;45.33
55317;BME280;41178;48.956;8.130;2022-08-03T02:21:44;99635.44;;;26.06;44.35
55317;BME280;41178;48.956;8.130;2022-08-03T02:24:02;99632.22;;;26.14;44.23
55317;BME280;41178;48.956;8.130;2022-08-03T02:26:08;99631.19;;;26.25;44.33
55317;BME280;41178;48.956;8.130;2022-08-03T02:28:17;99636.91;;;26.29;43.83
55317;BME280;41178;48.956;8.130;2022-08-03T02:30:20;99641.28;;;26.35;44.18
55317;BME280;41178;48.956;8.130;2022-08-03T02:32:31;99644.50;;;26.22;44.11
55317;BME280;41178;48.956;8.130;2022-08-03T02:34:35;99642.84;;;26.15;44.09
55317;BME280;41178;48.956;8.130;2022-08-03T02:36:38;99645.69;;;25.88;44.66
55317;BME280;41178;48.956;8.130;2022-08-03T02:38:42;99649.97;;;25.79;44.98
55317;BME280;41178;48.956;8.130;2022-08-03T02:40:45;99634.84;;;25.23;45.62
55317;BME280;41178;48.956;8.130;2022-08-03T02:42:48;99630.75;;;25.21;46.01
55317;BME280;41178;48.956;8.130;2022-08-03T02:44:52;99634.47;;;25.10;46.39
55317;BME280;41178;48.956;8.130;2022-08-03T02:46:59;99623.31;;;25.44;46.02
55317;BME280;41178;48.956;8.130;2022-08-03T02:49:03;99617.50;;;25.67;45.63
55317;BME280;41178;48.956;8.130;2022-08-03T02:51:27;99628.88;;;24.94;46.40
55317;BME280;41178;48.956;8.130;2022-08-03T02:53:30;99625.56;;;25.19;45.86
55317;BME280;41178;48.956;8.130;2022-08-03T02:55:34;99617.47;;;25.30;46.10
55317;BME280;41178;48.956;8.130;2022-08-03T02:57:43;99617.06;;;25.43;45.81
55317;BME280;41178;48.956;8.130;2022-08-03T02:59:47;99627.44;;;25.89;44.54
55317;BME280;41178;48.956;8.130;2022-08-03T03:01:50;99624.38;;;25.80;45.14
55317;BME280;41178;48.956;8.130;2022-08-03T03:03:55;99630.38;;;26.35;44.13
55317;BME280;41178;48.956;8.130;2022-08-03T03:05:58;99632.81;;;26.31;43.97
55317;BME280;41178;48.956;8.130;2022-08-03T03:08:00;99634.31;;;25.27;45.84
55317;BME280;41178;48.956;8.130;2022-08-03T03:10:03;99620.41;;;25.98;44.36
55317;BME280;41178;48.956;8.130;2022-08-03T03:12:07;99638.09;;;25.53;44.94
55317;BME280;41178;48.956;8.130;2022-08-03T03:14:10;99634.75;;;25.13;45.66
55317;BME280;41178;48.956;8.130;2022-08-03T03:16:14;99613.41;;;24.45;47.29
55317;BME280;41178;48.956;8.130;2022-08-03T03:18:16;99619.75;;;24.56;46.96
55317;BME280;41178;48.956;8.130;2022-08-03T03:20:24;99608.31;;;25.09;46.36
55317;BME280;41178;48.956;8.130;2022-08-03T03:22:32;99613.25;;;25.12;46.11
55317;BME280;41178;48.956;8.130;2022-08-03T03:24:35;99606.22;;;25.16;46.27
55317;BME280;41178;48.956;8.130;2022-08-03T03:26:38;99617.31;;;24.77;46.60
55317;BME280;41178;48.956;8.130;2022-08-03T03:28:43;99610.63;;;24.67;46.82
55317;BME280;41178;48.956;8.130;2022-08-03T03:30:45;99612.09;;;24.75;46.14
55317;BME280;41178;48.956;8.130;2022-08-03T03:32:53;99613.59;;;24.66;46.59
55317;BME280;41178;48.956;8.130;2022-08-03T03:34:56;99613.16;;;25.01;46.02
55317;BME280;41178;48.956;8.130;2022-08-03T03:37:00;99614.56;;;25.36;45.44
55317;BME280;41178;48.956;8.130;2022-08-03T03:39:02;99615.13;;;25.38;45.44
55317;BME280;41178;48.956;8.130;2022-08-03T03:41:16;99624.63;;;25.09;45.61
55317;BME280;41178;48.956;8.130;2022-08-03T03:43:22;99615.22;;;25.54;44.69
55317;BME280;41178;48.956;8.130;2022-08-03T03:45:25;99622.63;;;25.26;45.38
55317;BME280;41178;48.956;8.130;2022-08-03T03:47:27;99633.47;;;24.89;46.32
55317;BME280;41178;48.956;8.130;2022-08-03T03:49:33;99628.22;;;24.82;46.24
55317;BME280;41178;48.956;8.130;2022-08-03T03:51:35;99636.25;;;24.49;46.73
55317;BME280;41178;48.956;8.130;2022-08-03T03:53:37;99629.69;;;24.95;46.33
55317;BME280;41178;48.956;8.130;2022-08-03T03:55:39;99625.94;;;25.33;45.11
55317;BME280;41178;48.956;8.130;2022-08-03T03:58:02;99633.06;;;25.72;44.18
55317;BME280;41178;48.956;8.130;2022-08-03T04:00:05;99645.06;;;25.38;44.82
55317;BME280;41178;48.956;8.130;2022-08-03T04:02:08;99649.56;;;24.95;45.67
55317;BME280;41178;48.956;8.130;2022-08-03T04:04:10;99651.28;;;25.07;45.70
55317;BME280;41178;48.956;8.130;2022-08-03T04:06:31;99636.16;;;25.48;44.80
55317;BME280;41178;48.956;8.130;2022-08-03T04:08:51;99644.88;;;25.50;44.80
55317;BME280;41178;48.956;8.130;2022-08-03T04:11:25;99651.75;;;25.58;44.75
55317;BME280;41178;48.956;8.130;2022-08-03T04:13:36;99651.59;;;25.37;45.09
55317;BME280;41178;48.956;8.130;2022-08-03T04:15:39;99643.69;;;25.36;44.76
55317;BME280;41178;48.956;8.130;2022-08-03T04:17:42;99651.59;;;25.37;44.80
55317;BME280;41178;48.956;8.130;2022-08-03T04:19:48;99641.69;;;25.26;45.05
55317;BME280;41178;48.956;8.130;2022-08-03T04:21:54;99645.00;;;25.01;45.38
55317;BME280;41178;48.956;8.130;2022-08-03T04:24:00;99640.41;;;25.07;45.65
55317;BME280;41178;48.956;8.130;2022-08-03T04:26:06;99639.22;;;25.57;44.57
55317;BME280;41178;48.956;8.130;2022-08-03T04:28:10;99645.38;;;25.15;44.78
55317;BME280;41178;48.956;8.130;2022-08-03T04:30:35;99641.97;;;25.30;44.73
55317;BME280;41178;48.956;8.130;2022-08-03T04:32:38;99648.53;;;25.01;45.51
55317;BME280;41178;48.956;8.130;2022-08-03T04:34:46;99644.69;;;24.97;45.50
55317;BME280;41178;48.956;8.130;2022-08-03T04:36:49;99648.66;;;24.62;46.08
55317;BME280;41178;48.956;8.130;2022-08-03T04:39:07;99639.91;;;25.10;45.24
55317;BME280;41178;48.956;8.130;2022-08-03T04:41:11;99648.75;;;24.73;45.92
55317;BME280;41178;48.956;8.130;2022-08-03T04:43:15;99642.97;;;24.64;46.34
55317;BME280;41178;48.956;8.130;2022-08-03T04:45:19;99643.16;;;24.79;45.67
55317;BME280;41178;48.956;8.130;2022-08-03T04:47:21;99648.44;;;24.03;47.28
55317;BME280;41178;48.956;8.130;2022-08-03T04:49:24;99649.28;;;23.86;47.82
55317;BME280;41178;48.956;8.130;2022-08-03T04:51:26;99645.13;;;24.18;46.93
55317;BME280;41178;48.956;8.130;2022-08-03T04:53:28;99642.00;;;25.02;45.34
55317;BME280;41178;48.956;8.130;2022-08-03T04:55:31;99651.38;;;25.17;45.10
55317;BME280;41178;48.956;8.130;2022-08-03T04:57:33;99656.69;;;25.34;44.59
55317;BME280;41178;48.956;8.130;2022-08-03T04:59:35;99663.00;;;25.07;45.27
55317;BME280;41178;48.956;8.130;2022-08-03T05:01:41;99668.28;;;24.92;45.69
55317;BME280;41178;48.956;8.130;2022-08-03T05:03:43;99663.81;;;25.08;45.07
55317;BME280;41178;48.956;8.130;2022-08-03T05:05:44;99672.84;;;25.13;44.94
55317;BME280;41178;48.956;8.130;2022-08-03T05:07:51;99668.75;;;25.11;45.13
55317;BME280;41178;48.956;8.130;2022-08-03T05:09:53;99664.16;;;25.16;45.20
55317;BME280;41178;48.956;8.130;2022-08-03T05:12:04;99673.66;;;24.86;45.72
55317;BME280;41178;48.956;8.130;2022-08-03T05:14:06;99668.03;;;24.93;45.97
55317;BME280;41178;48.956;8.130;2022-08-03T05:16:08;99677.94;;;25.04;45.43
55317;BME280;41178;48.956;8.130;2022-08-03T05:18:10;99668.84;;;25.21;45.17
55317;BME280;41178;48.956;8.130;2022-08-03T05:20:14;99673.41;;;25.42;45.23
55317;BME280;41178;48.956;8.130;2022-08-03T05:22:20;99674.84;;;25.23;45.22
55317;BME280;41178;48.956;8.130;2022-08-03T05:24:21;99688.06;;;25.36;44.99
55317;BME280;41178;48.956;8.130;2022-08-03T05:26:23;99685.38;;;25.14;45.13
55317;BME280;41178;48.956;8.130;2022-08-03T05:28:27;99686.31;;;25.30;45.30
55317;BME280;41178;48.956;8.130;2022-08-03T05:30:28;99687.34;;;25.19;45.49
55317;BME280;41178;48.956;8.130;2022-08-03T05:32:34;99689.59;;;25.32;45.02
55317;BME280;41178;48.956;8.130;2022-08-03T05:34:36;99693.13;;;25.28;45.24
55317;BME280;41178;48.956;8.130;2022-08-03T05:36:38;99690.16;;;25.62;44.56
55317;BME280;41178;48.956;8.130;2022-08-03T05:38:40;99688.00;;;25.64;44.55
55317;BME280;41178;48.956;8.130;2022-08-03T05:40:41;99697.03;;;25.74;44.61
55317;BME280;41178;48.956;8.130;2022-08-03T05:42:58;99693.03;;;25.82;44.19
55317;BME280;41178;48.956;8.130;2022-08-03T05:45:03;99686.25;;;25.85;44.56
55317;BME280;41178;48.956;8.130;2022-08-03T05:47:13;99700.19;;;25.29;45.36
55317;BME280;41178;48.956;8.130;2022-08-03T05:49:15;99693.41;;;25.31;45.16
55317;BME280;41178;48.956;8.130;2022-08-03T05:51:17;99698.81;;;25.26;45.04
55317;BME280;41178;48.956;8.130;2022-08-03T05:53:18;99699.53;;;25.16;45.69
55317;BME280;41178;48.956;8.130;2022-08-03T05:55:20;99688.75;;;25.59;44.71
55317;BME280;41178;48.956;8.130;2022-08-03T05:57:22;99684.06;;;25.87;44.39
55317;BME280;41178;48.956;8.130;2022-08-03T05:59:24;99687.19;;;25.63;44.90
55317;BME280;41178;48.956;8.130;2022-08-03T06:01:38;99680.91;;;26.00;44.61
55317;BME280;41178;48.956;8.130;2022-08-03T06:03:40;99690.72;;;25.64;44.73
55317;BME280;41178;48.956;8.130;2022-08-03T06:05:42;99683.06;;;25.98;44.37
55317;BME280;41178;48.956;8.130;2022-08-03T06:08:02;99684.63;;;25.89;44.67
55317;BME280;41178;48.956;8.130;2022-08-03T06:10:04;99683.63;;;25.95;44.36
55317;BME280;41178;48.956;8.130;2022-08-03T06:12:26;99690.41;;;25.60;44.95
55317;BME280;41178;48.956;8.130;2022-08-03T06:14:28;99684.88;;;25.87;44.79
55317;BME280;41178;48.956;8.130;2022-08-03T06:16:30;99675.97;;;25.54;45.45
55317;BME280;41178;48.956;8.130;2022-08-03T06:18:31;99679.59;;;25.70;45.23
55317;BME280;41178;48.956;8.130;2022-08-03T06:20:33;99676.28;;;25.63;45.14
55317;BME280;41178;48.956;8.130;2022-08-03T06:22:35;99669.44;;;25.98;44.92
55317;BME280;41178;48.956;8.130;2022-08-03T06:24:49;99680.00;;;25.89;44.98
55317;BME280;41178;48.956;8.130;2022-08-03T06:26:55;99682.34;;;26.18;44.63
55317;BME280;41178;48.956;8.130;2022-08-03T06:28:57;99686.28;;;26.38;43.77
55317;BME280;41178;48.956;8.130;2022-08-03T06:30:59;99684.34;;;25.85;45.02
55317;BME280;41178;48.956;8.130;2022-08-03T06:33:01;99680.09;;;26.05;44.59
55317;BME280;41178;48.956;8.130;2022-08-03T06:35:07;99691.19;;;25.55;45.31
55317;BME280;41178;48.956;8.130;2022-08-03T06:37:08;99683.66;;;26.05;44.75
55317;BME280;41178;48.956;8.130;2022-08-03T06:39:10;99688.03;;;26.11;44.41
55317;BME280;41178;48.956;8.130;2022-08-03T06:41:13;99682.75;;;26.42;44.06
55317;BME280;41178;48.956;8.130;2022-08-03T06:43:15;99675.81;;;26.87;43.13
55317;BME280;41178;48.956;8.130;2022-08-03T06:45:16;99689.59;;;26.50;44.03
55317;BME280;41178;48.956;8.130;2022-08-03T06:47:18;99694.03;;;26.08;43.99
55317;BME280;41178;48.956;8.130;2022-08-03T06:49:20;99682.44;;;26.33;44.40
55317;BME280;41178;48.956;8.130;2022-08-03T06:51:22;99684.81;;;26.20;44.68
55317;BME280;41178;48.956;8.130;2022-08-03T06:53:44;99667.78;;;26.50;44.33
55317;BME280;41178;48.956;8.130;2022-08-03T06:55:45;99690.47;;;26.08;43.80
55317;BME280;41178;48.956;8.130;2022-08-03T06:57:54;99684.34;;;26.33;43.96
55317;BME280;41178;48.956;8.130;2022-08-03T07:00:04;99684.63;;;25.89;44.87
55317;BME280;41178;48.956;8.130;2022-08-03T07:02:12;99687.09;;;26.38;44.09
55317;BME280;41178;48.956;8.130;2022-08-03T07:04:19;99689.91;;;25.63;45.50
55317;BME280;41178;48.956;8.130;2022-08-03T07:06:21;99677.72;;;26.82;43.61
55317;BME280;41178;48.956;8.130;2022-08-03T07:08:23;99681.69;;;26.48;44.40
55317;BME280;41178;48.956;8.130;2022-08-03T07:10:34;99683.41;;;26.65;43.56
55317;BME280;41178;48.956;8.130;2022-08-03T07:12:39;99679.94;;;26.90;43.80
55317;BME280;41178;48.956;8.130;2022-08-03T07:14:58;99690.94;;;26.42;44.62
55317;BME280;41178;48.956;8.130;2022-08-03T07:17:03;99671.25;;;27.50;43.10
55317;BME280;41178;48.956;8.130;2022-08-03T07:19:12;99684.13;;;26.50;44.04
55317;BME280;41178;48.956;8.130;2022-08-03T07:21:13;99685.72;;;26.30;44.48
55317;BME280;41178;48.956;8.130;2022-08-03T07:23:17;99683.56;;;27.47;42.54
55317;BME280;41178;48.956;8.130;2022-08-03T07:25:19;99690.91;;;27.16;43.15
55317;BME280;41178;48.956;8.130;2022-08-03T07:27:21;99689.84;;;27.37;42.58
55317;BME280;41178;48.956;8.130;2022-08-03T07:29:23;99694.22;;;27.38;43.03
55317;BME280;41178;48.956;8.130;2022-08-03T07:31:25;99687.38;;;27.20;43.60
55317;BME280;41178;48.956;8.130;2022-08-03T07:33:34;99693.28;;;26.86;43.82
55317;BME280;41178;48.956;8.130;2022-08-03T07:35:36;99681.34;;;27.85;42.01
55317;BME280;41178;48.956;8.130;2022-08-03T07:37:37;99684.09;;;27.70;42.43
55317;BME280;41178;48.956;8.130;2022-08-03T07:39:39;99679.75;;;27.79;42.41
55317;BME280;41178;48.956;8.130;2022-08-03T07:41:41;99681.09;;;27.66;42.84
55317;BME280;41178;48.956;8.130;2022-08-03T07:43:42;99685.16;;;27.53;43.27
55317;BME280;41178;48.956;8.130;2022-08-03T07:45:44;99691.66;;;26.90;44.08
55317;BME280;41178;48.956;8.130;2022-08-03T07:47:46;99679.72;;;27.28;43.27
55317;BME280;41178;48.956;8.130;2022-08-03T07:49:54;99686.69;;;26.77;43.79
55317;BME280;41178;48.956;8.130;2022-08-03T07:51:56;99675.09;;;27.23;43.15
55317;BME280;41178;48.956;8.130;2022-08-03T07:54:17;99674.22;;;27.99;42.31
55317;BME280;41178;48.956;8.130;2022-08-03T07:56:18;99682.91;;;28.22;41.52
55317;BME280;41178;48.956;8.130;2022-08-03T07:58:20;99692.88;;;28.58;41.27
55317;BME280;41178;48.956;8.130;2022-08-03T08:00:24;99687.38;;;27.41;43.34
55317;BME280;41178;48.956;8.130;2022-08-03T08:02:26;99682.69;;;28.03;42.30
55317;BME280;41178;48.956;8.130;2022-08-03T08:04:28;99678.28;;;28.07;42.26
55317;BME280;41178;48.956;8.130;2022-08-03T08:06:29;99681.38;;;27.75;42.09
55317;BME280;41178;48.956;8.130;2022-08-03T08:08:33;99681.63;;;27.84;42.66
55317;BME280;41178;48.956;8.130;2022-08-03T08:10:35;99666.78;;;28.10;42.44
55317;BME280;41178;48.956;8.130;2022-08-03T08:12:37;99670.72;;;26.38;45.40
55317;BME280;41178;48.956;8.130;2022-08-03T08:14:39;99658.66;;;27.95;42.64
55317;BME280;41178;48.956;8.130;2022-08-03T08:16:42;99666.34;;;27.36;43.55
55317;BME280;41178;48.956;8.130;2022-08-03T08:18:43;99657.81;;;27.99;42.99
55317;BME280;41178;48.956;8.130;2022-08-03T08:20:45;99667.63;;;28.21;42.51
55317;BME280;41178;48.956;8.130;2022-08-03T08:22:47;99661.28;;;28.91;41.36
55317;BME280;41178;48.956;8.130;2022-08-03T08:24:50;99672.28;;;28.81;41.35
55317;BME280;41178;48.956;8.130;2022-08-03T08:26:52;99679.56;;;29.35;40.78
55317;BME280;41178;48.956;8.130;2022-08-03T08:28:54;99693.97;;;28.62;42.03
55317;BME280;41178;48.956;8.130;2022-08-03T08:30:56;99679.09;;;28.88;41.49
55317;BME280;41178;48.956;8.130;2022-08-03T08:32:57;99689.44;;;29.36;40.41
55317;BME280;41178;48.956;8.130;2022-08-03T08:34:59;99690.38;;;29.56;39.95
55317;BME280;41178;48.956;8.130;2022-08-03T08:37:01;99694.03;;;29.01;40.96
55317;BME280;41178;48.956;8.130;2022-08-03T08:39:03;99692.84;;;29.18;40.62
55317;BME280;41178;48.956;8.130;2022-08-03T08:41:04;99699.69;;;29.15;40.15
55317;BME280;41178;48.956;8.130;2022-08-03T08:43:06;99688.88;;;29.69;39.68
55317;BME280;41178;48.956;8.130;2022-08-03T08:45:09;99695.28;;;29.19;40.46
55317;BME280;41178;48.956;8.130;2022-08-03T08:47:13;99688.06;;;29.68;40.27
55317;BME280;41178;48.956;8.130;2022-08-03T08:49:16;99690.22;;;29.76;39.91
55317;BME280;41178;48.956;8.130;2022-08-03T08:51:20;99686.47;;;29.33;41.16
55317;BME280;41178;48.956;8.130;2022-08-03T08:53:27;99674.56;;;29.08;41.72
55317;BME280;41178;48.956;8.130;2022-08-03T08:55:30;99663.19;;;28.90;41.76
55317;BME280;41178;48.956;8.130;2022-08-03T08:57:57;99670.50;;;29.40;40.90
55317;BME280;41178;48.956;8.130;2022-08-03T09:00:07;99659.78;;;30.02;40.60
55317;BME280;41178;48.956;8.130;2022-08-03T09:02:10;99666.41;;;29.72;40.64
55317;BME280;41178;48.956;8.130;2022-08-03T09:04:12;99661.50;;;30.22;39.96
55317;BME280;41178;48.956;8.130;2022-08-03T09:06:14;99677.84;;;30.51;39.41
55317;BME280;41178;48.956;8.130;2022-08-03T09:08:17;99694.16;;;30.62;39.02
55317;BME280;41178;48.956;8.130;2022-08-03T09:10:18;99689.47;;;30.43;39.25
55317;BME280;41178;48.956;8.130;2022-08-03T09:12:22;99686.28;;;30.36;39.45
55317;BME280;41178;48.956;8.130;2022-08-03T09:14:42;99690.34;;;31.01;37.92
55317;BME280;41178;48.956;8.130;2022-08-03T09:17:02;99683.16;;;31.05;38.16
55317;BME280;41178;48.956;8.130;2022-08-03T09:19:12;99693.31;;;30.85;38.73
55317;BME280;41178;48.956;8.130;2022-08-03T09:21:17;99693.59;;;30.65;38.92
55317;BME280;41178;48.956;8.130;2022-08-03T09:23:55;99677.88;;;31.27;37.88
55317;BME280;41178;48.956;8.130;2022-08-03T09:26:06;99682.44;;;30.99;38.63
55317;BME280;41178;48.956;8.130;2022-08-03T09:28:16;99681.59;;;30.99;38.32
55317;BME280;41178;48.956;8.130;2022-08-03T09:30:44;99677.88;;;31.27;37.65
55317;BME280;41178;48.956;8.130;2022-08-03T09:33:03;99680.47;;;31.19;37.93
55317;BME280;41178;48.956;8.130;2022-08-03T09:35:05;99673.16;;;31.47;37.43
55317;BME280;41178;48.956;8.130;2022-08-03T09:37:14;99669.63;;;30.70;39.39
55317;BME280;41178;48.956;8.130;2022-08-03T09:39:21;99641.56;;;30.98;38.84
55317;BME280;41178;48.956;8.130;2022-08-03T09:41:44;99650.63;;;31.31;38.75
55317;BME280;41178;48.956;8.130;2022-08-03T09:43:46;99660.63;;;31.74;37.12
55317;BME280;41178;48.956;8.130;2022-08-03T09:45:48;99651.69;;;31.96;37.36
55317;BME280;41178;48.956;8.130;2022-08-03T09:47:50;99662.91;;;31.66;37.65
55317;BME280;41178;48.956;8.130;2022-08-03T09:50:00;99648.44;;;32.21;36.75
55317;BME280;41178;48.956;8.130;2022-08-03T09:52:17;99646.78;;;32.07;37.77
55317;BME280;41178;48.956;8.130;2022-08-03T09:54:40;99645.75;;;31.75;38.28
55317;BME280;41178;48.956;8.130;2022-08-03T09:56:45;99642.31;;;31.83;38.00
55317;BME280;41178;48.956;8.130;2022-08-03T09:58:47;99645.25;;;31.86;37.87
55317;BME280;41178;48.956;8.130;2022-08-03T10:01:00;99646.03;;;32.56;36.65
55317;BME280;41178;48.956;8.130;2022-08-03T10:03:03;99650.34;;;31.93;37.33
55317;BME280;41178;48.956;8.130;2022-08-03T10:05:07;99653.19;;;32.44;37.43
55317;BME280;41178;48.956;8.130;2022-08-03T10:07:10;99656.09;;;32.25;36.36
55317;BME280;41178;48.956;8.130;2022-08-03T10:09:14;99651.72;;;32.74;36.43
55317;BME280;41178;48.956;8.130;2022-08-03T10:11:29;99649.34;;;32.45;36.41
55317;BME280;41178;48.956;8.130;2022-08-03T10:13:31;99638.09;;;32.55;35.58
55317;BME280;41178;48.956;8.130;2022-08-03T10:15:33;99655.75;;;32.40;36.66
55317;BME280;41178;48.956;8.130;2022-08-03T10:17:55;99655.81;;;32.99;35.72
55317;BME280;41178;48.956;8.130;2022-08-03T10:19:56;99652.25;;;32.99;36.08
55317;BME280;41178;48.956;8.130;2022-08-03T10:22:03;99650.22;;;33.27;35.55
55317;BME280;41178;48.956;8.130;2022-08-03T10:24:08;99633.75;;;32.12;36.54
55317;BME280;41178;48.956;8.130;2022-08-03T10:26:15;99626.75;;;32.70;36.02
55317;BME280;41178;48.956;8.130;2022-08-03T10:28:19;99629.94;;;32.86;35.95
55317;BME280;41178;48.956;8.130;2022-08-03T10:30:23;99638.34;;;33.04;35.48
55317;BME280;41178;48.956;8.130;2022-08-03T10:34:39;99634.00;;;33.25;35.33
55317;BME280;41178;48.956;8.130;2022-08-03T10:36:46;99636.84;;;32.75;35.19
55317;BME280;41178;48.956;8.130;2022-08-03T10:38:50;99624.06;;;32.42;35.53
55317;BME280;41178;48.956;8.130;2022-08-03T10:40:54;99629.59;;;33.24;34.66
55317;BME280;41178;48.956;8.130;2022-08-03T10:43:07;99617.81;;;33.32;35.45
55317;BME280;41178;48.956;8.130;2022-08-03T10:45:23;99624.25;;;33.50;34.87
55317;BME280;41178;48.956;8.130;2022-08-03T10:47:25;99632.22;;;33.29;35.37
55317;BME280;41178;48.956;8.130;2022-08-03T10:49:28;99615.97;;;32.96;35.81
55317;BME280;41178;48.956;8.130;2022-08-03T10:51:35;99612.69;;;33.71;35.24
55317;BME280;41178;48.956;8.130;2022-08-03T10:53:39;99612.47;;;33.59;35.41
55317;BME280;41178;48.956;8.130;2022-08-03T10:55:54;99607.72;;;33.50;34.39
55317;BME280;41178;48.956;8.130;2022-08-03T11:03:22;99577.94;;;33.30;34.86
55317;BME280;41178;48.956;8.130;2022-08-03T11:05:25;99586.47;;;33.20;35.06
55317;BME280;41178;48.956;8.130;2022-08-03T11:07:27;99599.84;;;33.66;34.09
55317;BME280;41178;48.956;8.130;2022-08-03T11:09:40;99606.94;;;33.59;34.54
55317;BME280;41178;48.956;8.130;2022-08-03T11:11:44;99590.81;;;33.75;35.00
55317;BME280;41178;48.956;8.130;2022-08-03T11:16:18;99583.00;;;34.17;34.33
55317;BME280;41178;48.956;8.130;2022-08-03T11:18:22;99586.38;;;33.33;35.54
55317;BME280;41178;48.956;8.130;2022-08-03T11:22:51;99582.72;;;33.87;34.82
55317;BME280;41178;48.956;8.130;2022-08-03T11:29:26;99577.00;;;34.23;34.53
55317;BME280;41178;48.956;8.130;2022-08-03T11:34:11;99577.00;;;34.23;34.21
55317;BME280;41178;48.956;8.130;2022-08-03T11:36:12;99578.69;;;33.53;34.57
55317;BME280;41178;48.956;8.130;2022-08-03T11:38:32;99576.00;;;34.11;34.55